KACT/ACT METAR and TAF weather

Enter ICAO airport designator
Station Type Date Time Source
KACT METAR 2020/07/11 16:51 UTC NOAA

KACT 111651Z 16009KT 10SM CLR 33/22 A3004 RMK AO2 SLP165 T03280222


Station Type Date Time Source
KACT Decoded METAR 2020/07/11 16:51 UTC NOAA

WACO REGIONAL AIRPORT, TX, United States (KACT) 31-36N 97-13W 151M
Jul 11, 2020 - 12:51 PM EDT / 2020.07.11 1651 UTC
Wind: from the SSE (160 degrees) at 10 MPH (9 KT):0
Visibility: 10 mile(s):0
Sky conditions: clear
Temperature: 91.0 F (32.8 C)
Heat index: 98.1 F (36.7 C):1
Dew Point: 72.0 F (22.2 C)
Relative Humidity: 53%
Pressure (altimeter): 30.04 in. Hg (1017 hPa)
ob: KACT 111651Z 16009KT 10SM CLR 33/22 A3004 RMK AO2 SLP165 T03280222
cycle: 17

Station Type Date Time Source
KACT TAF 2020/07/11 15:57 UTC NOAA

TAF
AMD KACT 111457Z 1115/1212 18009KT P6SM FEW250

Example: see airport list